»·PEaware :: N982CA KTOA-L65

N982CA :: KTOA-L65

FLIGHT INFORMATION

Flight Status: Arrived
Operator: Privately registered:
United States
More flights under this callsign
Pilot: Anonymous 15639 (15639)
Aircraft: Unknown
(DA62)
More flights by this aircraft type
Origin: KTOA Zamperini
United States
Destination: L65 Perris Valley
United States
More flights between these airports :: More routes between these airports
Route: +LIMBO V64 SLI V8 PDZ
File this flight plan on PilotEdge
Remarks: TEC route SCTP7
Altitude:
(Current/Filed)
5,000ft
Speed:
(Current/Filed)
170kts
Departed: 28-Sep-18 11:48 AM
Arrived: 28-Sep-18 12:16 PM
Distance/Time
Traveled:
56nm/0:28
Distance/Time
To Go:
Arrived

Flight Plot

Page will automatically refresh every two minutes.


Map Options




Map Legend


Flown Route
Filed Route
Departure Airport
Arrival Airport
Navaid (VOR, NDB)
Fix

Horizontal Profiles

Position Reports

Time Latitude Longitude Heading Altitude Ground
Speed
28-Sep-18 11:33 33.803347 -118.344052 39 107ft 0kts
28-Sep-18 11:34 33.803347 -118.344052 39 107ft 0kts
28-Sep-18 11:35 33.803347 -118.344052 39 107ft 0kts
28-Sep-18 11:36 33.803347 -118.344052 39 107ft 0kts
28-Sep-18 11:37 33.803347 -118.344052 39 107ft 0kts
28-Sep-18 11:38 33.803347 -118.344052 39 107ft 0kts
28-Sep-18 11:39 33.803347 -118.344052 39 107ft 0kts
28-Sep-18 11:40 33.803347 -118.344052 39 107ft 0kts
28-Sep-18 11:41 33.803347 -118.344052 39 107ft 0kts
28-Sep-18 11:42 33.803347 -118.344052 39 107ft 0kts
28-Sep-18 11:43 33.803347 -118.344052 39 107ft 0kts
28-Sep-18 11:44 33.803347 -118.344052 39 107ft 0kts
28-Sep-18 11:45 33.803351 -118.343775 128 107ft 4kts
28-Sep-18 11:46 33.802674 -118.342505 39 107ft 0kts
28-Sep-18 11:47 33.802297 -118.340972 129 107ft 10kts
28-Sep-18 11:48 33.800193 -118.337792 126 107ft 10kts
28-Sep-18 11:49 33.800138 -118.336548 4 107ft 7kts
28-Sep-18 11:50 33.812099 -118.353936 309 469ft 104kts
28-Sep-18 11:51 33.832708 -118.375793 4 1695ft 108kts
28-Sep-18 11:52 33.842430 -118.345217 95 2771ft 108kts
28-Sep-18 11:53 33.834606 -118.309010 104 3719ft 116kts
28-Sep-18 11:54 33.827132 -118.270671 104 4680ft 119kts
28-Sep-18 11:55 33.818276 -118.226725 104 5017ft 158kts
28-Sep-18 11:56 33.807265 -118.171940 105 5009ft 174kts
28-Sep-18 11:57 33.795705 -118.115247 105 5007ft 175kts
28-Sep-18 11:58 33.784421 -118.059376 98 5002ft 168kts
28-Sep-18 11:59 33.796287 -118.005109 74 5007ft 170kts
28-Sep-18 12:00 33.810330 -117.950567 73 5007ft 171kts
28-Sep-18 12:01 33.824549 -117.895448 73 5006ft 173kts
28-Sep-18 12:02 33.838858 -117.839995 72 5005ft 173kts
28-Sep-18 12:03 33.853116 -117.784654 72 5005ft 173kts
28-Sep-18 12:04 33.866845 -117.729472 71 5005ft 172kts
28-Sep-18 12:05 33.881018 -117.674727 71 5006ft 171kts
28-Sep-18 12:06 33.869286 -117.625805 132 4872ft 172kts
28-Sep-18 12:07 33.835958 -117.583119 132 4375ft 176kts
28-Sep-18 12:08 33.802941 -117.539407 130 3874ft 176kts
28-Sep-18 12:09 33.770873 -117.495366 133 3508ft 171kts
28-Sep-18 12:10 33.742488 -117.450794 129 3493ft 164kts
28-Sep-18 12:11 33.729203 -117.399519 99 3497ft 164kts
28-Sep-18 12:12 33.733433 -117.344800 84 3500ft 164kts
28-Sep-18 12:13 33.744817 -117.292687 60 3318ft 159kts
28-Sep-18 12:14 33.783295 -117.271267 352 2905ft 152kts
28-Sep-18 12:15 33.809249 -117.251611 105 2520ft 109kts
28-Sep-18 12:16 33.791288 -117.228681 154 1868ft 86kts
28-Sep-18 12:17 33.768322 -117.220001 167 1467ft 84kts
28-Sep-18 12:18 33.761478 -117.218428 350 1417ft 3kts
28-Sep-18 12:19 33.763608 -117.219183 352 1417ft 1kts
28-Sep-18 12:20 33.763668 -117.219101 94 1417ft 0kts
28-Sep-18 12:21 33.763668 -117.219101 94 1417ft 0kts
28-Sep-18 12:22 33.763668 -117.219101 94 1417ft 0kts
28-Sep-18 12:23 33.763668 -117.219101 94 1417ft 0kts
28-Sep-18 12:24 33.763668 -117.219101 94 1417ft 0kts
28-Sep-18 12:25 33.763668 -117.219101 94 1417ft 0kts
28-Sep-18 12:26 33.763668 -117.219101 94 1417ft 0kts
28-Sep-18 12:27 33.763668 -117.219101 94 1417ft 0kts
28-Sep-18 12:28 33.763668 -117.219101 94 1417ft 0kts
28-Sep-18 12:29 33.763668 -117.219101 94 1417ft 0kts
28-Sep-18 12:30 33.763668 -117.219101 94 1417ft 0kts
28-Sep-18 12:31 33.763668 -117.219101 94 1417ft 0kts
28-Sep-18 12:32 33.763668 -117.219101 94 1417ft 0kts

Navigation Log

Ident Type
Flight plan parsing failed, navigation log unavailable